Погода Ипуерасна 2 недели

Сеара, Бразилия

20 июля-02 августа
  • 20июля
    Сегодня
    +19°
    +30°
    Небольшая облачность
    ВремяПогодаТемператураВлажностьДавлениеВетер, м/сВероятность осадков
    00:00Ясно и безоблачно+22°C75 %715 мм6.5 м/с5 %
    03:00Ясно и безоблачно+20°C80 %714 мм6.8 м/с8 %
    06:00Практически безоблачно+20°C81 %714 мм6.4 м/с6 %
    09:00Ясно и безоблачно+24°C56 %716 мм7.5 м/с7 %
    12:00Практически безоблачно+29°C36 %715 мм6.3 м/с6 %
    15:00Небольшая облачность+29°C36 %713 мм6.2 м/с4 %
    18:00Практически безоблачно+26°C47 %713 мм5.6 м/с5 %
    21:00Ясно и безоблачно+24°C55 %714 мм4.3 м/с5 %
  • 21июля
    Воскресенье
    +19°
    +31°
    Небольшая облачность
    ВремяПогодаТемператураВлажностьДавлениеВетер, м/сВероятность осадков
    00:00Ясно и безоблачно+22°C68 %714 мм6.8 м/с5 %
    03:00Ясно и безоблачно+20°C72 %713 мм6.1 м/с5 %
    06:00Ясно и безоблачно+19°C71 %713 мм5.4 м/с5 %
    09:00Ясно и безоблачно+24°C51 %715 мм5.8 м/с2 %
    12:00Облачно с прояснениями+29°C33 %714 мм5.6 м/с4 %
    15:00Небольшая облачность+30°C27 %712 мм4.4 м/с5 %
    18:00Облачно с прояснениями+27°C39 %713 мм5.7 м/с5 %
    21:00Облачно с прояснениями+24°C54 %714 мм6.3 м/с5 %
  • 22июля
    Понедельник
    +19°
    +31°
    Ясно и безоблачно
    ВремяПогодаТемператураВлажностьДавлениеВетер, м/сВероятность осадков
    00:00Небольшая облачность+22°C66 %714 мм6.8 м/с5 %
    03:00Небольшая облачность+21°C73 %713 мм7.4 м/с2 %
    06:00Практически безоблачно+19°C77 %713 мм6.6 м/с5 %
    09:00Ясно и безоблачно+25°C50 %715 мм6.8 м/с5 %
    12:00Небольшая облачность+29°C35 %714 мм6.3 м/с5 %
    15:00Ясно и безоблачно+30°C31 %713 мм4.8 м/с5 %
    18:00Практически безоблачно+28°C36 %713 мм3.7 м/с5 %
    21:00Ясно и безоблачно+25°C45 %715 мм4.8 м/с5 %
  • 23июля
    Вторник
    +19°
    +31°
    Ясно и безоблачно
    ВремяПогодаТемператураВлажностьДавлениеВетер, м/сВероятность осадков
    00:00Ясно и безоблачно+23°C58 %714 мм5.9 м/с5 %
    03:00Ясно и безоблачно+21°C73 %713 мм7.1 м/с5 %
    06:00Практически безоблачно+20°C82 %714 мм7.4 м/с5 %
    09:00Ясно и безоблачно+24°C56 %716 мм7.8 м/с5 %
    12:00Ясно и безоблачно+29°C35 %715 мм5.9 м/с5 %
    15:00Ясно и безоблачно+31°C31 %713 мм5.4 м/с5 %
    18:00Ясно и безоблачно+28°C40 %714 мм5.0 м/с5 %
    21:00Ясно и безоблачно+24°C50 %715 мм6.1 м/с5 %
  • 24июля
    Среда
    +19°
    +31°
    Ясно и безоблачно
    ВремяПогодаТемператураВлажностьДавлениеВетер, м/сВероятность осадков
    00:00Ясно и безоблачно+23°C65 %715 мм7.3 м/с5 %
    03:00Практически безоблачно+21°C80 %714 мм7.5 м/с5 %
    06:00Ясно и безоблачно+20°C80 %714 мм6.8 м/с5 %
    09:00Ясно и безоблачно+25°C54 %716 мм7.8 м/с5 %
    12:00Ясно и безоблачно+29°C36 %715 мм6.9 м/с5 %
    15:00Ясно и безоблачно+30°C35 %714 мм6.4 м/с5 %
    18:00Ясно и безоблачно+27°C43 %714 мм5.1 м/с5 %
    21:00Ясно и безоблачно+24°C52 %715 мм5.5 м/с5 %
Мы используем cookies
Соглашаюсь